Time;durP1;ratioP1;P1;durP2;ratioP2;P2;SDS_P1;SDS_P2;PMS_P1;PMS_P2;Temp;Humidity;BMP_temperature;BMP_pressure;BME280_temperature;BME280_humidity;BME280_pressure;Samples;Min_cycle;Max_cycle;Signal;HPM_P1;HPM_P2
2024/02/06 00:01:29;;;;;;;;;;;8.40;82.40;;;;;;4965127;28;20344;-70
2024/02/06 00:04:02;;;;;;;;;;;8.40;82.50;;;;;;4969032;28;20456;-70
2024/02/06 00:06:35;;;;;;;;;;;8.40;82.50;;;;;;4968860;28;19936;-70
2024/02/06 00:09:09;;;;;;;;;;;8.30;82.50;;;;;;4968072;28;19937;-70
2024/02/06 00:11:43;;;;;;;;;;;8.40;82.50;;;;;;4967866;28;19926;-70
2024/02/06 00:14:17;;;;;;;;;;;8.30;82.40;;;;;;4966732;28;19953;-71
2024/02/06 00:16:50;;;;;;;;;;;8.40;82.40;;;;;;4964798;28;20460;-70
2024/02/06 00:19:24;;;;;;;;;;;8.30;82.50;;;;;;4966468;28;20357;-69
2024/02/06 00:21:57;;;;;;;;;;;8.30;82.40;;;;;;4970278;28;19926;-70
2024/02/06 00:24:30;;;;;;;;;;;8.40;82.40;;;;;;4962514;28;19941;-69
2024/02/06 00:27:04;;;;;;;;;;;8.30;82.60;;;;;;4966971;28;20006;-69
2024/02/06 00:29:38;;;;;;;;;;;8.30;82.60;;;;;;4966239;28;19934;-69
2024/02/06 00:32:19;;;;;;;;;;;8.30;82.50;;;;;;4967400;28;19930;-68
2024/02/06 00:34:56;;;;;;;;;;;8.30;82.50;;;;;;4967362;28;19926;-66
2024/02/06 00:37:32;;;;;;;;;;;8.30;82.50;;;;;;4966614;28;19926;-67
2024/02/06 00:40:08;;;;;;;;;;;8.30;82.30;;;;;;4967929;28;20036;-68
2024/02/06 00:42:42;;;;;;;;;;;8.30;82.40;;;;;;4963816;28;19934;-67
2024/02/06 00:45:18;;;;;;;;;;;8.20;82.40;;;;;;4970639;28;20014;-64
2024/02/06 00:47:52;;;;;;;;;;;8.20;82.50;;;;;;4971110;28;20398;-65
2024/02/06 00:50:31;;;;;;;;;;;8.30;82.50;;;;;;4969403;28;20598;-65
2024/02/06 00:53:05;;;;;;;;;;;8.20;82.50;;;;;;4971678;28;19965;-67
2024/02/06 00:55:39;;;;;;;;;;;8.20;82.50;;;;;;4972090;28;20385;-68
2024/02/06 00:58:14;;;;;;;;;;;8.20;82.60;;;;;;4972763;28;19926;-66
2024/02/06 01:00:49;;;;;;;;;;;8.20;82.70;;;;;;4968712;28;19973;-68
2024/02/06 01:03:22;;;;;;;;;;;8.20;82.50;;;;;;4971185;28;19989;-67
2024/02/06 01:05:55;;;;;;;;;;;8.20;82.60;;;;;;4971950;28;19930;-66
2024/02/06 01:08:28;;;;;;;;;;;8.20;82.50;;;;;;4968028;28;19934;-66
2024/02/06 01:11:01;;;;;;;;;;;8.20;82.60;;;;;;4969793;28;19957;-66
2024/02/06 01:13:35;;;;;;;;;;;8.20;82.40;;;;;;4970999;28;19989;-66
2024/02/06 01:16:08;;;;;;;;;;;8.20;82.40;;;;;;4969501;28;19934;-67
2024/02/06 01:18:41;;;;;;;;;;;8.20;82.50;;;;;;4969693;28;19934;-66
2024/02/06 01:21:14;;;;;;;;;;;8.10;82.50;;;;;;4967702;28;20020;-67
2024/02/06 01:23:47;;;;;;;;;;;8.20;82.60;;;;;;4971458;28;20020;-67
2024/02/06 01:26:20;;;;;;;;;;;8.20;82.70;;;;;;4970847;28;20838;-67
2024/02/06 01:28:54;;;;;;;;;;;8.20;82.70;;;;;;4979449;28;19926;-65
2024/02/06 01:31:28;;;;;;;;;;;8.20;82.50;;;;;;4969778;28;19981;-65
2024/02/06 01:34:01;;;;;;;;;;;8.20;82.50;;;;;;4969187;28;19934;-68
2024/02/06 01:36:34;;;;;;;;;;;8.20;82.50;;;;;;4963018;28;19933;-67
2024/02/06 01:39:08;;;;;;;;;;;8.20;82.50;;;;;;4969181;28;19941;-68
2024/02/06 01:41:41;;;;;;;;;;;8.20;82.50;;;;;;4970748;28;19926;-65
2024/02/06 01:44:15;;;;;;;;;;;8.10;82.70;;;;;;4970682;28;20351;-72
2024/02/06 01:46:49;;;;;;;;;;;8.20;82.70;;;;;;4969453;28;19926;-73
2024/02/06 01:49:16;;;;;;;;;;;8.20;82.70;;;;;;4968747;28;20400;-74
2024/02/06 01:51:49;;;;;;;;;;;8.20;82.60;;;;;;4967289;28;19945;-71
2024/02/06 01:54:22;;;;;;;;;;;8.20;82.60;;;;;;4967443;28;19938;-74
2024/02/06 01:56:55;;;;;;;;;;;8.20;82.70;;;;;;4971306;28;19962;-73
2024/02/06 01:59:29;;;;;;;;;;;8.20;82.70;;;;;;4971469;28;19962;-72
2024/02/06 02:02:03;;;;;;;;;;;8.20;82.80;;;;;;4970730;28;19993;-71
2024/02/06 02:04:36;;;;;;;;;;;8.10;82.90;;;;;;4969889;28;19937;-73
2024/02/06 02:07:09;;;;;;;;;;;8.10;83.00;;;;;;4971069;28;19941;-73
2024/02/06 02:09:42;;;;;;;;;;;8.10;83.00;;;;;;4971196;28;19992;-75
2024/02/06 02:12:15;;;;;;;;;;;8.10;83.10;;;;;;4966521;28;19976;-73
2024/02/06 02:14:49;;;;;;;;;;;8.10;83.20;;;;;;4968818;28;19934;-72
2024/02/06 02:17:23;;;;;;;;;;;8.00;83.30;;;;;;4969570;28;19989;-73
2024/02/06 02:19:49;;;;;;;;;;;8.10;83.50;;;;;;4969395;28;19937;-72
2024/02/06 02:22:24;;;;;;;;;;;8.10;83.60;;;;;;4968451;28;19941;-72
2024/02/06 02:24:58;;;;;;;;;;;8.10;83.60;;;;;;4968355;28;20313;-74
2024/02/06 02:27:31;;;;;;;;;;;8.10;83.60;;;;;;4967810;28;19965;-72
2024/02/06 02:30:05;;;;;;;;;;;8.00;83.80;;;;;;4969293;28;19926;-74
2024/02/06 02:32:38;;;;;;;;;;;8.00;83.90;;;;;;4968219;28;19934;-73
2024/02/06 02:35:13;;;;;;;;;;;8.00;83.90;;;;;;4970212;28;20415;-73
2024/02/06 02:37:47;;;;;;;;;;;8.00;84.00;;;;;;4969385;28;20391;-74
2024/02/06 02:40:21;;;;;;;;;;;8.00;83.90;;;;;;4971463;28;19930;-74
2024/02/06 02:42:55;;;;;;;;;;;8.10;84.20;;;;;;4964866;28;19942;-73
2024/02/06 02:45:28;;;;;;;;;;;8.00;84.30;;;;;;4968180;28;19926;-73
2024/02/06 02:48:01;;;;;;;;;;;8.00;84.40;;;;;;4968867;28;19989;-73
2024/02/06 02:50:34;;;;;;;;;;;7.90;84.50;;;;;;4966272;28;19934;-74
2024/02/06 02:53:09;;;;;;;;;;;8.00;84.80;;;;;;4968190;28;20400;-60
2024/02/06 02:55:42;;;;;;;;;;;7.90;84.80;;;;;;4970352;28;20020;-61
2024/02/06 02:58:15;;;;;;;;;;;7.90;85.00;;;;;;4969499;28;20020;-60
2024/02/06 03:00:42;;;;;;;;;;;7.90;85.10;;;;;;4964227;28;19929;-58
2024/02/06 03:03:15;;;;;;;;;;;7.90;85.20;;;;;;4966989;28;19973;-59
2024/02/06 03:05:48;;;;;;;;;;;7.90;85.20;;;;;;4970208;28;19957;-60
2024/02/06 03:08:22;;;;;;;;;;;8.00;85.10;;;;;;4967197;28;20397;-60
2024/02/06 03:10:49;;;;;;;;;;;7.90;85.20;;;;;;4968206;28;19926;-60
2024/02/06 03:13:22;;;;;;;;;;;7.90;85.40;;;;;;4967399;28;20008;-59
2024/02/06 03:15:55;;;;;;;;;;;7.80;85.60;;;;;;4969720;28;19933;-59
2024/02/06 03:18:28;;;;;;;;;;;7.80;85.70;;;;;;4960732;28;19934;-58
2024/02/06 03:21:01;;;;;;;;;;;7.90;85.70;;;;;;4964096;28;20437;-60
2024/02/06 03:23:35;;;;;;;;;;;7.90;85.90;;;;;;4967377;28;19941;-59
2024/02/06 03:26:09;;;;;;;;;;;7.90;85.90;;;;;;4965099;28;19941;-59
2024/02/06 03:28:42;;;;;;;;;;;7.80;85.90;;;;;;4968150;28;19962;-59
2024/02/06 03:31:09;;;;;;;;;;;7.80;85.90;;;;;;4968291;28;20389;-59
2024/02/06 03:33:42;;;;;;;;;;;7.80;85.90;;;;;;4966261;28;19934;-60
2024/02/06 03:36:15;;;;;;;;;;;7.80;86.10;;;;;;4968431;28;19989;-60
2024/02/06 03:38:49;;;;;;;;;;;7.70;86.10;;;;;;4969697;28;19941;-59
2024/02/06 03:41:23;;;;;;;;;;;7.70;86.30;;;;;;4968147;28;19930;-59
2024/02/06 03:43:56;;;;;;;;;;;7.80;86.10;;;;;;4969346;28;19926;-60
2024/02/06 03:46:29;;;;;;;;;;;7.70;86.40;;;;;;4959707;28;19926;-60
2024/02/06 03:48:56;;;;;;;;;;;7.70;86.30;;;;;;4970949;28;19926;-59
2024/02/06 03:51:30;;;;;;;;;;;7.70;86.30;;;;;;4961111;28;19993;-58
2024/02/06 03:54:04;;;;;;;;;;;7.70;86.40;;;;;;4968314;28;20447;-58
2024/02/06 03:56:38;;;;;;;;;;;7.70;86.50;;;;;;4967290;28;19934;-60
2024/02/06 03:59:11;;;;;;;;;;;7.70;86.50;;;;;;4961797;28;20008;-59
2024/02/06 04:01:44;;;;;;;;;;;7.70;86.50;;;;;;4968423;28;19934;-61
2024/02/06 04:04:18;;;;;;;;;;;7.70;86.50;;;;;;4967787;28;20886;-60
2024/02/06 04:06:45;;;;;;;;;;;7.70;86.50;;;;;;4965602;28;19932;-61
2024/02/06 04:09:20;;;;;;;;;;;7.70;86.50;;;;;;4968833;28;19941;-62
2024/02/06 04:11:53;;;;;;;;;;;7.70;86.60;;;;;;4966632;28;19933;-61
2024/02/06 04:14:26;;;;;;;;;;;7.70;86.60;;;;;;4969009;28;19934;-61
2024/02/06 04:16:59;;;;;;;;;;;7.70;86.70;;;;;;4972041;28;19926;-61
2024/02/06 04:19:32;;;;;;;;;;;7.70;86.90;;;;;;4972957;28;19965;-61
2024/02/06 04:22:05;;;;;;;;;;;7.60;86.90;;;;;;4969574;28;19927;-61
2024/02/06 04:24:39;;;;;;;;;;;7.70;86.90;;;;;;4972364;28;19934;-62
2024/02/06 04:27:13;;;;;;;;;;;7.60;86.90;;;;;;4973164;28;19930;-61
2024/02/06 04:29:46;;;;;;;;;;;7.60;87.00;;;;;;4971533;28;19941;-63
2024/02/06 04:32:19;;;;;;;;;;;7.60;87.10;;;;;;4972470;28;20305;-61
2024/02/06 04:34:52;;;;;;;;;;;7.60;87.00;;;;;;4971715;28;20304;-62
2024/02/06 04:37:25;;;;;;;;;;;7.60;87.10;;;;;;4969172;28;19969;-62
2024/02/06 04:39:59;;;;;;;;;;;7.60;87.20;;;;;;4970625;28;20016;-62
2024/02/06 04:42:39;;;;;;;;;;;7.60;87.20;;;;;;4971070;28;20448;-62
2024/02/06 04:45:13;;;;;;;;;;;7.60;87.10;;;;;;4971361;28;19934;-60
2024/02/06 04:47:46;;;;;;;;;;;7.60;87.30;;;;;;4971651;28;19930;-61
2024/02/06 04:50:21;;;;;;;;;;;7.50;87.40;;;;;;4970264;28;20025;-61
2024/02/06 04:52:59;;;;;;;;;;;7.60;87.50;;;;;;4971291;28;19926;-61
2024/02/06 04:55:34;;;;;;;;;;;7.60;87.60;;;;;;4968783;28;20290;-62
2024/02/06 04:58:01;;;;;;;;;;;7.60;87.80;;;;;;4970333;28;19937;-61
2024/02/06 05:00:34;;;;;;;;;;;7.50;87.80;;;;;;4967843;28;19930;-62
2024/02/06 05:03:07;;;;;;;;;;;7.50;87.80;;;;;;4973114;28;19930;-63
2024/02/06 05:05:41;;;;;;;;;;;7.60;87.90;;;;;;4970063;28;19933;-62
2024/02/06 05:08:14;;;;;;;;;;;7.50;88.00;;;;;;4965888;28;19934;-61
2024/02/06 05:10:48;;;;;;;;;;;7.60;88.00;;;;;;4971176;28;19926;-63
2024/02/06 05:13:22;;;;;;;;;;;7.60;87.90;;;;;;4972175;28;19937;-61
2024/02/06 05:15:55;;;;;;;;;;;7.50;88.00;;;;;;4971630;28;20301;-59
2024/02/06 05:18:29;;;;;;;;;;;7.50;88.00;;;;;;4971733;28;20458;-62
2024/02/06 05:21:03;;;;;;;;;;;7.50;87.90;;;;;;4971500;28;19926;-59
2024/02/06 05:23:36;;;;;;;;;;;7.50;87.80;;;;;;4970259;28;19992;-62
2024/02/06 05:26:10;;;;;;;;;;;7.50;87.80;;;;;;4961579;28;19941;-61
2024/02/06 05:28:44;;;;;;;;;;;7.50;87.90;;;;;;4968112;28;19940;-59
2024/02/06 05:31:17;;;;;;;;;;;7.40;88.00;;;;;;4971088;28;19930;-61
2024/02/06 05:33:50;;;;;;;;;;;7.50;88.00;;;;;;4969895;28;19933;-59
2024/02/06 05:36:23;;;;;;;;;;;7.50;88.00;;;;;;4964755;28;19926;-60
2024/02/06 05:38:56;;;;;;;;;;;7.50;88.00;;;;;;4968692;28;19977;-61
2024/02/06 05:41:30;;;;;;;;;;;7.50;87.90;;;;;;4967423;28;19939;-59
2024/02/06 05:44:04;;;;;;;;;;;7.50;87.90;;;;;;4968651;28;19930;-58
2024/02/06 05:46:37;;;;;;;;;;;7.50;88.00;;;;;;4966015;28;19936;-60
2024/02/06 05:49:10;;;;;;;;;;;7.40;88.00;;;;;;4969831;28;19930;-60
2024/02/06 05:51:43;;;;;;;;;;;7.50;88.00;;;;;;4968381;28;20457;-59
2024/02/06 05:54:16;;;;;;;;;;;7.40;87.90;;;;;;4968289;28;19930;-61
2024/02/06 05:56:50;;;;;;;;;;;7.40;88.00;;;;;;4964387;28;19944;-59
2024/02/06 05:59:25;;;;;;;;;;;7.50;88.00;;;;;;4967543;28;19962;-61
2024/02/06 06:01:58;;;;;;;;;;;7.40;87.90;;;;;;4968363;28;20452;-59
2024/02/06 06:04:37;;;;;;;;;;;7.50;87.90;;;;;;4968479;28;19930;-59
2024/02/06 06:07:11;;;;;;;;;;;7.50;87.80;;;;;;4966077;28;19930;-59
2024/02/06 06:09:44;;;;;;;;;;;7.40;88.00;;;;;;4968517;28;19934;-60
2024/02/06 06:12:18;;;;;;;;;;;7.40;87.90;;;;;;4969436;28;19934;-59
2024/02/06 06:14:52;;;;;;;;;;;7.40;87.90;;;;;;4967415;28;19937;-59
2024/02/06 06:17:18;;;;;;;;;;;7.40;87.90;;;;;;4969132;28;20147;-59
2024/02/06 06:19:52;;;;;;;;;;;7.40;87.80;;;;;;4968303;28;19949;-59
2024/02/06 06:22:25;;;;;;;;;;;7.40;87.80;;;;;;4968451;28;20021;-60
2024/02/06 06:25:05;;;;;;;;;;;7.40;87.90;;;;;;4969006;28;19930;-60
2024/02/06 06:27:41;;;;;;;;;;;7.40;87.90;;;;;;4967437;28;19926;-59
2024/02/06 06:30:15;;;;;;;;;;;7.40;87.90;;;;;;4968139;28;19926;-60
2024/02/06 06:32:48;;;;;;;;;;;7.40;87.90;;;;;;4966985;28;19926;-65
2024/02/06 06:35:21;;;;;;;;;;;7.40;87.90;;;;;;4968130;28;20440;-66
2024/02/06 06:37:54;;;;;;;;;;;7.40;87.90;;;;;;4967073;28;19933;-65
2024/02/06 06:40:27;;;;;;;;;;;7.40;87.90;;;;;;4969306;28;20016;-67
2024/02/06 06:43:02;;;;;;;;;;;7.40;87.90;;;;;;4967948;28;19934;-65
2024/02/06 06:45:36;;;;;;;;;;;7.40;88.00;;;;;;4965267;28;19933;-67
2024/02/06 06:48:09;;;;;;;;;;;7.40;87.90;;;;;;4969909;28;20013;-66
2024/02/06 06:50:42;;;;;;;;;;;7.40;88.00;;;;;;4969836;28;19926;-66
2024/02/06 06:53:15;;;;;;;;;;;7.40;88.00;;;;;;4969104;28;19934;-67
2024/02/06 06:55:48;;;;;;;;;;;7.40;88.00;;;;;;4968538;28;20011;-66
2024/02/06 06:58:22;;;;;;;;;;;7.40;88.00;;;;;;4968507;28;20369;-66
2024/02/06 07:00:56;;;;;;;;;;;7.40;88.10;;;;;;4967926;28;20325;-65
2024/02/06 07:03:29;;;;;;;;;;;7.40;88.10;;;;;;4967332;28;20317;-67
2024/02/06 07:06:02;;;;;;;;;;;7.40;88.20;;;;;;4967598;28;19930;-66
2024/02/06 07:08:35;;;;;;;;;;;7.40;88.30;;;;;;4968854;28;19938;-66
2024/02/06 07:11:09;;;;;;;;;;;7.40;88.30;;;;;;4969292;28;19934;-65
2024/02/06 07:13:43;;;;;;;;;;;7.40;88.40;;;;;;4969619;28;19933;-66
2024/02/06 07:16:17;;;;;;;;;;;7.40;88.50;;;;;;4970468;28;20189;-67
2024/02/06 07:18:50;;;;;;;;;;;7.40;88.50;;;;;;4967382;28;21096;-65
2024/02/06 07:21:23;;;;;;;;;;;7.40;88.50;;;;;;4970660;28;19930;-67
2024/02/06 07:23:56;;;;;;;;;;;7.40;88.50;;;;;;4968024;28;19941;-65
2024/02/06 07:26:29;;;;;;;;;;;7.40;88.50;;;;;;4966995;28;19937;-67
2024/02/06 07:29:03;;;;;;;;;;;7.40;88.40;;;;;;4970042;28;19937;-67
2024/02/06 07:31:37;;;;;;;;;;;7.40;88.40;;;;;;4968454;28;19926;-66
2024/02/06 07:34:10;;;;;;;;;;;7.40;88.40;;;;;;4968664;28;19969;-67
2024/02/06 07:36:37;;;;;;;;;;;7.40;88.30;;;;;;4964458;28;19930;-65
2024/02/06 07:39:10;;;;;;;;;;;7.40;88.30;;;;;;4967288;28;20411;-65
2024/02/06 07:41:43;;;;;;;;;;;7.40;88.30;;;;;;4968739;28;20021;-70
2024/02/06 07:44:18;;;;;;;;;;;7.40;88.20;;;;;;4962473;28;19980;-60
2024/02/06 07:46:52;;;;;;;;;;;7.40;88.10;;;;;;4967258;28;20421;-58
2024/02/06 07:49:25;;;;;;;;;;;7.40;88.00;;;;;;4968307;28;20370;-59
2024/02/06 07:51:58;;;;;;;;;;;7.40;88.00;;;;;;4968321;28;20396;-59
2024/02/06 07:54:32;;;;;;;;;;;7.40;88.00;;;;;;4969660;28;20016;-59
2024/02/06 07:57:05;;;;;;;;;;;7.40;87.90;;;;;;4974282;28;19930;-59
2024/02/06 07:59:40;;;;;;;;;;;7.40;87.90;;;;;;4973258;28;19937;-60
2024/02/06 08:02:06;;;;;;;;;;;7.40;87.80;;;;;;4972892;28;19930;-59
2024/02/06 08:04:41;;;;;;;;;;;7.40;87.80;;;;;;4971207;28;19934;-58
2024/02/06 08:07:14;;;;;;;;;;;7.40;87.80;;;;;;4972944;28;19973;-59
2024/02/06 08:09:47;;;;;;;;;;;7.40;87.80;;;;;;4970251;28;19977;-60
2024/02/06 08:12:21;;;;;;;;;;;7.40;87.70;;;;;;4972623;28;19926;-59
2024/02/06 08:14:55;;;;;;;;;;;7.40;87.80;;;;;;4971341;28;19977;-59
2024/02/06 08:17:29;;;;;;;;;;;7.40;87.70;;;;;;4970076;28;19934;-59
2024/02/06 08:20:03;;;;;;;;;;;7.40;87.70;;;;;;4970220;28;19930;-59
2024/02/06 08:22:36;;;;;;;;;;;7.40;87.70;;;;;;4972046;28;19948;-60
2024/02/06 08:25:09;;;;;;;;;;;7.40;87.70;;;;;;4968757;28;19936;-59
2024/02/06 08:27:43;;;;;;;;;;;7.50;87.60;;;;;;4971546;28;19930;-60
2024/02/06 08:30:19;;;;;;;;;;;7.40;87.60;;;;;;4972964;28;19934;-60
2024/02/06 08:32:52;;;;;;;;;;;7.40;87.60;;;;;;4967739;28;20023;-59
2024/02/06 08:35:25;;;;;;;;;;;7.40;87.60;;;;;;4970807;28;20381;-60
2024/02/06 08:37:59;;;;;;;;;;;7.40;87.80;;;;;;4970700;28;19926;-60
2024/02/06 08:40:33;;;;;;;;;;;7.40;87.90;;;;;;4971540;28;19926;-59
2024/02/06 08:43:07;;;;;;;;;;;7.40;88.00;;;;;;4968815;28;20389;-59
2024/02/06 08:45:41;;;;;;;;;;;7.40;88.10;;;;;;4969950;28;19937;-59
2024/02/06 08:48:15;;;;;;;;;;;7.40;88.20;;;;;;4973115;28;19930;-60
2024/02/06 08:50:42;;;;;;;;;;;7.40;88.40;;;;;;4971169;28;20400;-59
2024/02/06 08:53:16;;;;;;;;;;;7.40;88.40;;;;;;4970993;28;20309;-67
2024/02/06 08:55:49;;;;;;;;;;;7.40;88.50;;;;;;4971277;28;19965;-66
2024/02/06 08:58:22;;;;;;;;;;;7.40;88.60;;;;;;4970530;28;19972;-66
2024/02/06 09:00:50;;;;;;;;;;;7.40;88.70;;;;;;4968732;28;19934;-66
2024/02/06 09:03:30;;;;;;;;;;;7.40;88.70;;;;;;4969725;28;19926;-65
2024/02/06 09:06:05;;;;;;;;;;;7.40;88.90;;;;;;4969469;28;20013;-65
2024/02/06 09:08:39;;;;;;;;;;;7.40;88.80;;;;;;4970671;28;19931;-64
2024/02/06 09:11:12;;;;;;;;;;;7.40;89.00;;;;;;4971582;28;20384;-66
2024/02/06 09:13:46;;;;;;;;;;;7.50;89.00;;;;;;4972562;28;19926;-66
2024/02/06 09:16:22;;;;;;;;;;;7.50;88.90;;;;;;4972293;28;19941;-67
2024/02/06 09:18:55;;;;;;;;;;;7.50;89.00;;;;;;4971899;28;19933;-66
2024/02/06 09:21:28;;;;;;;;;;;7.40;89.10;;;;;;4970255;28;19930;-65
2024/02/06 09:24:02;;;;;;;;;;;7.50;89.10;;;;;;4971403;28;19937;-65
2024/02/06 09:26:35;;;;;;;;;;;7.40;89.30;;;;;;4970766;28;19930;-66
2024/02/06 09:29:08;;;;;;;;;;;7.40;89.30;;;;;;4972268;28;19930;-65
2024/02/06 09:31:43;;;;;;;;;;;7.50;89.40;;;;;;4970191;28;19930;-66
2024/02/06 09:34:16;;;;;;;;;;;7.50;89.30;;;;;;4971251;28;19958;-65
2024/02/06 09:36:49;;;;;;;;;;;7.50;89.40;;;;;;4968593;28;19934;-66
2024/02/06 09:39:22;;;;;;;;;;;7.60;89.30;;;;;;4971619;28;20025;-66
2024/02/06 09:42:01;;;;;;;;;;;7.50;89.30;;;;;;4967302;28;19929;-66
2024/02/06 09:44:34;;;;;;;;;;;7.50;89.40;;;;;;4967266;28;20025;-66
2024/02/06 09:47:08;;;;;;;;;;;7.50;89.50;;;;;;4971937;28;19933;-64
2024/02/06 09:49:42;;;;;;;;;;;7.50;89.50;;;;;;4970065;28;20297;-65
2024/02/06 09:52:15;;;;;;;;;;;7.50;89.60;;;;;;4969005;28;19930;-64
2024/02/06 09:54:55;;;;;;;;;;;7.50;89.50;;;;;;4969620;28;19930;-65
2024/02/06 09:57:29;;;;;;;;;;;7.50;89.50;;;;;;4971328;28;19981;-64
2024/02/06 09:59:57;;;;;;;;;;;7.50;89.60;;;;;;4967271;28;20306;-66
2024/02/06 10:02:32;;;;;;;;;;;7.50;89.60;;;;;;4970734;28;20461;-60
2024/02/06 10:05:09;;;;;;;;;;;7.60;89.60;;;;;;4972242;28;19973;-62
2024/02/06 10:07:46;;;;;;;;;;;7.60;89.60;;;;;;4975767;28;22011;-61
2024/02/06 10:10:20;;;;;;;;;;;7.60;89.60;;;;;;4970898;28;19926;-61
2024/02/06 10:12:54;;;;;;;;;;;7.50;89.60;;;;;;4971352;28;19953;-60
2024/02/06 10:15:27;;;;;;;;;;;7.60;89.70;;;;;;4968586;28;19930;-61
2024/02/06 10:18:02;;;;;;;;;;;7.60;89.60;;;;;;4971898;28;19965;-61
2024/02/06 10:20:42;;;;;;;;;;;7.60;89.70;;;;;;4971510;28;20022;-60
2024/02/06 10:23:15;;;;;;;;;;;7.60;89.60;;;;;;4972124;28;19984;-61
2024/02/06 10:25:50;;;;;;;;;;;7.60;89.60;;;;;;4971198;28;20012;-60
2024/02/06 10:28:24;;;;;;;;;;;7.60;89.60;;;;;;4971064;28;19970;-60
2024/02/06 10:30:57;;;;;;;;;;;7.60;89.70;;;;;;4967124;28;19950;-61
2024/02/06 10:33:31;;;;;;;;;;;7.60;89.80;;;;;;4962101;28;19992;-60
2024/02/06 10:36:06;;;;;;;;;;;7.60;89.80;;;;;;4967313;28;19930;-60
2024/02/06 10:38:39;;;;;;;;;;;7.60;89.80;;;;;;4966344;28;19966;-60
2024/02/06 10:41:12;;;;;;;;;;;7.60;89.80;;;;;;4966974;28;19933;-60
2024/02/06 10:43:45;;;;;;;;;;;7.70;89.70;;;;;;4966759;28;19985;-60
2024/02/06 10:46:20;;;;;;;;;;;7.70;89.80;;;;;;4966621;28;19926;-60
2024/02/06 10:49:04;;;;;;;;;;;7.70;89.70;;;;;;4968298;28;19945;-61
2024/02/06 10:51:37;;;;;;;;;;;7.70;89.70;;;;;;4967512;28;19934;-61
2024/02/06 10:54:10;;;;;;;;;;;7.70;89.70;;;;;;4966219;28;20309;-60
2024/02/06 10:56:38;;;;;;;;;;;7.70;89.70;;;;;;4968068;28;19939;-59
2024/02/06 10:59:13;;;;;;;;;;;7.70;89.70;;;;;;4968315;28;19936;-60
2024/02/06 11:01:47;;;;;;;;;;;7.70;89.70;;;;;;4967936;28;19965;-62
2024/02/06 11:04:23;;;;;;;;;;;7.70;89.70;;;;;;4960648;28;19937;-62
2024/02/06 11:07:02;;;;;;;;;;;7.70;89.70;;;;;;4967855;28;20400;-61
2024/02/06 11:09:37;;;;;;;;;;;7.70;89.70;;;;;;4967054;28;19930;-61
2024/02/06 11:12:11;;;;;;;;;;;7.70;89.80;;;;;;4968213;28;19934;-59
2024/02/06 11:14:45;;;;;;;;;;;7.70;89.70;;;;;;4966793;28;20013;-60
2024/02/06 11:17:18;;;;;;;;;;;7.80;89.70;;;;;;4967999;28;19984;-59
2024/02/06 11:19:58;;;;;;;;;;;7.70;89.60;;;;;;4966387;28;19926;-60
2024/02/06 11:22:34;;;;;;;;;;;7.70;89.80;;;;;;4962583;28;19948;-60
2024/02/06 11:25:09;;;;;;;;;;;7.70;89.60;;;;;;4969083;28;19946;-59
2024/02/06 11:27:42;;;;;;;;;;;7.70;89.70;;;;;;4967187;28;20315;-59
2024/02/06 11:30:16;;;;;;;;;;;7.70;89.70;;;;;;4965764;28;19930;-59
2024/02/06 11:33:00;;;;;;;;;;;7.70;89.70;;;;;;4968072;28;20381;-60
2024/02/06 11:35:35;;;;;;;;;;;7.70;89.60;;;;;;4977442;28;19926;-59
2024/02/06 11:38:08;;;;;;;;;;;7.70;89.60;;;;;;4967390;28;20020;-59
2024/02/06 11:40:41;;;;;;;;;;;7.70;89.60;;;;;;4966444;28;19937;-58
2024/02/06 11:43:26;;;;;;;;;;;7.80;89.60;;;;;;4968040;28;19926;-59
2024/02/06 11:46:00;;;;;;;;;;;7.70;89.70;;;;;;4968331;28;19934;-60
2024/02/06 11:48:27;;;;;;;;;;;7.70;89.60;;;;;;4968368;28;19930;-61
2024/02/06 11:51:02;;;;;;;;;;;7.70;89.60;;;;;;4968216;28;19958;-60
2024/02/06 11:53:35;;;;;;;;;;;7.80;89.40;;;;;;4965954;28;20868;-59
2024/02/06 11:56:09;;;;;;;;;;;7.70;89.40;;;;;;4968520;28;20052;-59
2024/02/06 11:58:43;;;;;;;;;;;7.80;89.40;;;;;;4968633;28;20963;-60
2024/02/06 12:01:24;;;;;;;;;;;7.80;89.40;;;;;;4966465;28;20369;-59
2024/02/06 12:03:59;;;;;;;;;;;7.80;89.20;;;;;;4967705;28;19985;-59
2024/02/06 12:06:27;;;;;;;;;;;7.90;89.10;;;;;;4966454;28;19930;-59
2024/02/06 12:09:01;;;;;;;;;;;7.90;89.00;;;;;;4968160;28;20360;-59
2024/02/06 12:11:36;;;;;;;;;;;7.90;88.90;;;;;;4965426;28;20397;-59
2024/02/06 12:14:11;;;;;;;;;;;7.90;88.90;;;;;;4967113;28;20004;-59
2024/02/06 12:16:45;;;;;;;;;;;7.90;88.80;;;;;;4968089;28;19958;-60
2024/02/06 12:19:18;;;;;;;;;;;7.80;88.80;;;;;;4966988;28;19937;-60
2024/02/06 12:21:59;;;;;;;;;;;7.80;88.70;;;;;;4962465;28;19930;-60
2024/02/06 12:24:32;;;;;;;;;;;7.90;88.60;;;;;;4955706;28;19930;-59
2024/02/06 12:27:06;;;;;;;;;;;7.80;88.60;;;;;;4950804;28;20366;-59
2024/02/06 12:29:40;;;;;;;;;;;7.90;88.60;;;;;;4964014;28;19941;-59
2024/02/06 12:32:15;;;;;;;;;;;7.90;88.50;;;;;;4959031;28;19984;-59
2024/02/06 12:34:48;;;;;;;;;;;7.90;88.40;;;;;;4968201;28;19985;-58
2024/02/06 12:37:23;;;;;;;;;;;7.90;88.30;;;;;;4969274;28;19961;-58
2024/02/06 12:40:00;;;;;;;;;;;7.90;88.30;;;;;;4973510;28;19926;-60
2024/02/06 12:42:33;;;;;;;;;;;7.90;88.20;;;;;;4971721;28;19934;-59
2024/02/06 12:45:07;;;;;;;;;;;7.90;88.30;;;;;;4971783;28;19930;-60
2024/02/06 12:47:40;;;;;;;;;;;7.90;88.40;;;;;;4972353;28;19934;-59
2024/02/06 12:50:13;;;;;;;;;;;7.90;88.10;;;;;;4972585;28;19981;-59
2024/02/06 12:52:51;;;;;;;;;;;7.90;88.20;;;;;;4971856;28;19930;-59
2024/02/06 12:55:24;;;;;;;;;;;7.90;88.10;;;;;;4967074;28;19930;-60
2024/02/06 12:57:59;;;;;;;;;;;7.90;88.10;;;;;;4971630;28;19936;-59
2024/02/06 13:00:34;;;;;;;;;;;7.90;88.10;;;;;;4970143;28;20037;-58
2024/02/06 13:03:08;;;;;;;;;;;8.00;88.10;;;;;;4972352;28;20441;-59
2024/02/06 13:05:44;;;;;;;;;;;8.00;88.00;;;;;;4969553;28;19930;-60
2024/02/06 13:08:19;;;;;;;;;;;8.00;88.10;;;;;;4971731;28;19934;-58
2024/02/06 13:10:52;;;;;;;;;;;8.00;88.00;;;;;;4972016;28;20381;-59
2024/02/06 13:13:26;;;;;;;;;;;8.00;88.00;;;;;;4971088;28;19926;-59
2024/02/06 13:16:01;;;;;;;;;;;8.00;88.00;;;;;;4972193;28;19926;-61
2024/02/06 13:18:36;;;;;;;;;;;8.00;88.00;;;;;;4971238;28;19926;-60
2024/02/06 13:21:09;;;;;;;;;;;8.00;88.00;;;;;;4970649;28;20022;-59
2024/02/06 13:23:44;;;;;;;;;;;8.10;87.90;;;;;;4970838;28;19930;-60
2024/02/06 13:26:11;;;;;;;;;;;8.10;87.90;;;;;;4970800;28;19933;-59
2024/02/06 13:28:45;;;;;;;;;;;8.10;88.00;;;;;;4970310;28;19930;-59
2024/02/06 13:31:18;;;;;;;;;;;8.10;87.80;;;;;;4970667;28;20452;-60
2024/02/06 13:33:51;;;;;;;;;;;8.10;87.80;;;;;;4971160;28;19934;-69
2024/02/06 13:36:24;;;;;;;;;;;8.10;87.80;;;;;;4971104;28;19937;-69
2024/02/06 13:38:52;;;;;;;;;;;8.10;87.80;;;;;;4969872;28;19933;-69
2024/02/06 13:41:25;;;;;;;;;;;8.20;87.70;;;;;;4984564;28;19926;-68
2024/02/06 13:43:58;;;;;;;;;;;8.20;87.60;;;;;;4970915;28;19965;-70
2024/02/06 13:46:31;;;;;;;;;;;8.20;87.50;;;;;;4970357;28;19934;-69
2024/02/06 13:49:04;;;;;;;;;;;8.20;87.50;;;;;;4970325;28;19930;-70
2024/02/06 13:51:37;;;;;;;;;;;8.20;87.40;;;;;;4980169;28;20671;-69
2024/02/06 13:54:13;;;;;;;;;;;8.30;87.40;;;;;;4972802;28;20381;-69
2024/02/06 13:56:47;;;;;;;;;;;8.30;87.40;;;;;;4971966;28;20013;-69
2024/02/06 13:59:20;;;;;;;;;;;8.30;87.20;;;;;;4971337;28;19926;-68
2024/02/06 14:01:54;;;;;;;;;;;8.30;87.20;;;;;;4966994;28;20024;-70
2024/02/06 14:04:27;;;;;;;;;;;8.40;87.20;;;;;;4969571;28;20029;-70
2024/02/06 14:07:00;;;;;;;;;;;8.30;87.10;;;;;;4967268;28;19937;-69
2024/02/06 14:09:28;;;;;;;;;;;8.40;87.20;;;;;;4969460;28;20289;-70
2024/02/06 14:12:16;;;;;;;;;;;8.30;87.10;;;;;;4970049;28;21420;-69
2024/02/06 14:14:56;;;;;;;;;;;8.40;87.10;;;;;;4966919;28;19985;-70
2024/02/06 14:17:29;;;;;;;;;;;8.40;87.10;;;;;;4967549;28;19934;-69
2024/02/06 14:19:56;;;;;;;;;;;8.40;87.10;;;;;;4970297;28;19949;-71
2024/02/06 14:22:29;;;;;;;;;;;8.40;87.10;;;;;;4969098;28;19930;-71
2024/02/06 14:25:04;;;;;;;;;;;8.40;87.00;;;;;;4970193;28;19926;-69
2024/02/06 14:27:37;;;;;;;;;;;8.40;87.00;;;;;;4969057;28;19930;-70
2024/02/06 14:30:11;;;;;;;;;;;8.50;87.00;;;;;;4969940;28;20648;-70
2024/02/06 14:32:44;;;;;;;;;;;8.40;86.90;;;;;;4967824;28;19926;-70
2024/02/06 14:35:17;;;;;;;;;;;8.40;86.90;;;;;;4969893;28;19926;-70
2024/02/06 14:37:50;;;;;;;;;;;8.40;86.70;;;;;;4969613;28;20396;-69
2024/02/06 14:40:25;;;;;;;;;;;8.40;86.80;;;;;;4969333;28;20416;-69
2024/02/06 14:42:58;;;;;;;;;;;8.50;86.80;;;;;;4969827;28;20353;-62
2024/02/06 14:45:32;;;;;;;;;;;8.50;86.70;;;;;;4969131;28;19930;-61
2024/02/06 14:48:06;;;;;;;;;;;8.50;86.70;;;;;;4963851;28;20370;-62
2024/02/06 14:50:39;;;;;;;;;;;8.50;86.70;;;;;;4965027;28;19930;-61
2024/02/06 14:53:12;;;;;;;;;;;8.60;86.70;;;;;;4969602;28;19950;-62
2024/02/06 14:55:47;;;;;;;;;;;8.60;86.50;;;;;;4968841;28;20396;-60
2024/02/06 14:58:20;;;;;;;;;;;8.60;86.50;;;;;;4967693;28;19930;-63
2024/02/06 15:00:47;;;;;;;;;;;8.60;86.50;;;;;;4970000;28;19926;-63
2024/02/06 15:03:23;;;;;;;;;;;8.60;86.40;;;;;;4970035;28;19930;-62
2024/02/06 15:05:56;;;;;;;;;;;8.60;86.40;;;;;;4970172;28;19985;-60
2024/02/06 15:08:29;;;;;;;;;;;8.60;86.30;;;;;;4968535;28;19930;-63